sensor_id;sensor_type;location;lat;lon;timestamp;temperature;humidity
37204;DHT22;23098;48.054;10.636;2023-07-13T00:02:07;17.90;99.90
37204;DHT22;23098;48.054;10.636;2023-07-13T00:04:33;17.90;99.90
37204;DHT22;23098;48.054;10.636;2023-07-13T00:06:59;17.90;99.90
37204;DHT22;23098;48.054;10.636;2023-07-13T00:09:25;18.00;99.90
37204;DHT22;23098;48.054;10.636;2023-07-13T00:11:52;18.00;99.90
37204;DHT22;23098;48.054;10.636;2023-07-13T00:14:18;17.90;99.90
37204;DHT22;23098;48.054;10.636;2023-07-13T00:16:44;17.90;99.90
37204;DHT22;23098;48.054;10.636;2023-07-13T00:19:11;18.00;99.90
37204;DHT22;23098;48.054;10.636;2023-07-13T00:21:38;18.00;99.90
37204;DHT22;23098;48.054;10.636;2023-07-13T00:24:05;18.00;99.90
37204;DHT22;23098;48.054;10.636;2023-07-13T00:26:31;18.00;99.90
37204;DHT22;23098;48.054;10.636;2023-07-13T00:28:58;18.00;99.90
37204;DHT22;23098;48.054;10.636;2023-07-13T00:31:23;18.00;99.90
37204;DHT22;23098;48.054;10.636;2023-07-13T00:33:49;18.00;99.90
37204;DHT22;23098;48.054;10.636;2023-07-13T00:36:14;18.00;99.90
37204;DHT22;23098;48.054;10.636;2023-07-13T00:38:40;18.00;99.90
37204;DHT22;23098;48.054;10.636;2023-07-13T00:41:06;17.90;99.90
37204;DHT22;23098;48.054;10.636;2023-07-13T00:43:32;17.90;99.90
37204;DHT22;23098;48.054;10.636;2023-07-13T00:46:17;17.90;99.90
37204;DHT22;23098;48.054;10.636;2023-07-13T00:48:46;17.80;99.90
37204;DHT22;23098;48.054;10.636;2023-07-13T00:51:13;17.80;99.90
37204;DHT22;23098;48.054;10.636;2023-07-13T00:53:40;17.80;99.90
37204;DHT22;23098;48.054;10.636;2023-07-13T00:56:06;17.80;99.90
37204;DHT22;23098;48.054;10.636;2023-07-13T00:58:32;17.70;99.90
37204;DHT22;23098;48.054;10.636;2023-07-13T01:00:58;17.70;99.90
37204;DHT22;23098;48.054;10.636;2023-07-13T01:03:24;17.70;99.90
37204;DHT22;23098;48.054;10.636;2023-07-13T01:05:50;17.70;99.90
37204;DHT22;23098;48.054;10.636;2023-07-13T01:08:16;17.70;99.90
37204;DHT22;23098;48.054;10.636;2023-07-13T01:10:51;17.60;99.90
37204;DHT22;23098;48.054;10.636;2023-07-13T01:13:17;17.50;99.90
37204;DHT22;23098;48.054;10.636;2023-07-13T01:15:44;17.50;99.90
37204;DHT22;23098;48.054;10.636;2023-07-13T01:18:18;17.50;99.90
37204;DHT22;23098;48.054;10.636;2023-07-13T01:21:01;17.50;99.90
37204;DHT22;23098;48.054;10.636;2023-07-13T01:23:27;17.40;99.90
37204;DHT22;23098;48.054;10.636;2023-07-13T01:25:53;17.40;99.90
37204;DHT22;23098;48.054;10.636;2023-07-13T01:28:20;17.40;99.90
37204;DHT22;23098;48.054;10.636;2023-07-13T01:30:46;17.30;99.90
37204;DHT22;23098;48.054;10.636;2023-07-13T01:33:14;17.30;99.90
37204;DHT22;23098;48.054;10.636;2023-07-13T01:35:40;17.30;99.90
37204;DHT22;23098;48.054;10.636;2023-07-13T01:38:06;17.30;99.90
37204;DHT22;23098;48.054;10.636;2023-07-13T01:40:34;17.20;99.90
37204;DHT22;23098;48.054;10.636;2023-07-13T01:43:00;17.20;99.90
37204;DHT22;23098;48.054;10.636;2023-07-13T01:45:26;17.10;99.90
37204;DHT22;23098;48.054;10.636;2023-07-13T01:47:52;17.00;99.90
37204;DHT22;23098;48.054;10.636;2023-07-13T01:50:17;17.00;99.90
37204;DHT22;23098;48.054;10.636;2023-07-13T01:52:43;17.00;99.90
37204;DHT22;23098;48.054;10.636;2023-07-13T01:55:08;17.00;99.90
37204;DHT22;23098;48.054;10.636;2023-07-13T01:57:34;16.90;99.90
37204;DHT22;23098;48.054;10.636;2023-07-13T02:00:03;16.70;99.90
37204;DHT22;23098;48.054;10.636;2023-07-13T02:02:30;16.70;99.90
37204;DHT22;23098;48.054;10.636;2023-07-13T02:04:55;16.60;99.90
37204;DHT22;23098;48.054;10.636;2023-07-13T02:07:21;16.70;99.90
37204;DHT22;23098;48.054;10.636;2023-07-13T02:09:47;16.70;99.90
37204;DHT22;23098;48.054;10.636;2023-07-13T02:12:12;16.70;99.90
37204;DHT22;23098;48.054;10.636;2023-07-13T02:14:38;16.70;99.90
37204;DHT22;23098;48.054;10.636;2023-07-13T02:17:04;16.70;99.90
37204;DHT22;23098;48.054;10.636;2023-07-13T02:19:30;16.80;99.90
37204;DHT22;23098;48.054;10.636;2023-07-13T02:21:55;16.80;99.90
37204;DHT22;23098;48.054;10.636;2023-07-13T02:24:21;16.90;99.90
37204;DHT22;23098;48.054;10.636;2023-07-13T02:26:47;16.80;99.90
37204;DHT22;23098;48.054;10.636;2023-07-13T02:29:13;16.90;99.90
37204;DHT22;23098;48.054;10.636;2023-07-13T02:31:38;16.80;99.90
37204;DHT22;23098;48.054;10.636;2023-07-13T02:34:04;16.80;99.90
37204;DHT22;23098;48.054;10.636;2023-07-13T02:36:31;16.90;99.90
37204;DHT22;23098;48.054;10.636;2023-07-13T02:39:00;16.90;99.90
37204;DHT22;23098;48.054;10.636;2023-07-13T02:41:26;16.90;99.90
37204;DHT22;23098;48.054;10.636;2023-07-13T02:43:52;16.90;99.90
37204;DHT22;23098;48.054;10.636;2023-07-13T02:46:17;16.90;99.90
37204;DHT22;23098;48.054;10.636;2023-07-13T02:48:45;16.90;99.90
37204;DHT22;23098;48.054;10.636;2023-07-13T02:51:11;16.90;99.90
37204;DHT22;23098;48.054;10.636;2023-07-13T02:53:36;16.90;99.90
37204;DHT22;23098;48.054;10.636;2023-07-13T02:56:02;17.00;99.90
37204;DHT22;23098;48.054;10.636;2023-07-13T02:58:28;16.90;99.90
37204;DHT22;23098;48.054;10.636;2023-07-13T03:00:55;17.00;99.90
37204;DHT22;23098;48.054;10.636;2023-07-13T03:03:21;17.00;99.90
37204;DHT22;23098;48.054;10.636;2023-07-13T03:05:46;16.90;99.90
37204;DHT22;23098;48.054;10.636;2023-07-13T03:08:15;16.90;99.90
37204;DHT22;23098;48.054;10.636;2023-07-13T03:10:41;16.90;99.90
37204;DHT22;23098;48.054;10.636;2023-07-13T03:13:06;16.90;99.90
37204;DHT22;23098;48.054;10.636;2023-07-13T03:15:32;16.90;99.90
37204;DHT22;23098;48.054;10.636;2023-07-13T03:17:57;16.90;99.90
37204;DHT22;23098;48.054;10.636;2023-07-13T03:20:23;16.80;99.90
37204;DHT22;23098;48.054;10.636;2023-07-13T03:22:49;16.80;99.90
37204;DHT22;23098;48.054;10.636;2023-07-13T03:25:14;16.80;99.90
37204;DHT22;23098;48.054;10.636;2023-07-13T03:27:40;16.80;99.90
37204;DHT22;23098;48.054;10.636;2023-07-13T03:30:06;16.70;99.90
37204;DHT22;23098;48.054;10.636;2023-07-13T03:32:32;16.70;99.90
37204;DHT22;23098;48.054;10.636;2023-07-13T03:34:57;16.70;99.90
37204;DHT22;23098;48.054;10.636;2023-07-13T03:37:23;16.70;99.90
37204;DHT22;23098;48.054;10.636;2023-07-13T03:39:49;16.70;99.90
37204;DHT22;23098;48.054;10.636;2023-07-13T03:42:15;16.70;99.90
37204;DHT22;23098;48.054;10.636;2023-07-13T03:44:42;16.80;99.90
37204;DHT22;23098;48.054;10.636;2023-07-13T03:47:11;16.80;99.90
37204;DHT22;23098;48.054;10.636;2023-07-13T03:49:36;16.80;99.90
37204;DHT22;23098;48.054;10.636;2023-07-13T03:52:02;16.90;99.90
37204;DHT22;23098;48.054;10.636;2023-07-13T03:54:28;16.90;99.90
37204;DHT22;23098;48.054;10.636;2023-07-13T03:56:53;16.90;99.90
37204;DHT22;23098;48.054;10.636;2023-07-13T03:59:19;16.90;99.90
37204;DHT22;23098;48.054;10.636;2023-07-13T04:01:44;16.90;99.90
37204;DHT22;23098;48.054;10.636;2023-07-13T04:04:10;16.90;99.90
37204;DHT22;23098;48.054;10.636;2023-07-13T04:06:35;16.90;99.90
37204;DHT22;23098;48.054;10.636;2023-07-13T04:09:02;16.90;99.90
37204;DHT22;23098;48.054;10.636;2023-07-13T04:11:31;16.90;99.90
37204;DHT22;23098;48.054;10.636;2023-07-13T04:13:58;16.90;99.90
37204;DHT22;23098;48.054;10.636;2023-07-13T04:16:24;16.90;99.90
37204;DHT22;23098;48.054;10.636;2023-07-13T04:18:50;16.90;99.90
37204;DHT22;23098;48.054;10.636;2023-07-13T04:21:20;16.90;99.90
37204;DHT22;23098;48.054;10.636;2023-07-13T04:23:46;16.80;99.90
37204;DHT22;23098;48.054;10.636;2023-07-13T04:26:11;16.80;99.90
37204;DHT22;23098;48.054;10.636;2023-07-13T04:28:37;16.80;99.90
37204;DHT22;23098;48.054;10.636;2023-07-13T04:31:02;16.80;99.90
37204;DHT22;23098;48.054;10.636;2023-07-13T04:33:28;16.80;99.90
37204;DHT22;23098;48.054;10.636;2023-07-13T04:35:55;16.80;99.90
37204;DHT22;23098;48.054;10.636;2023-07-13T04:38:26;16.80;99.90
37204;DHT22;23098;48.054;10.636;2023-07-13T04:40:55;16.80;99.90
37204;DHT22;23098;48.054;10.636;2023-07-13T04:43:21;16.80;99.90
37204;DHT22;23098;48.054;10.636;2023-07-13T04:45:47;16.80;99.90
37204;DHT22;23098;48.054;10.636;2023-07-13T04:48:12;16.70;99.90
37204;DHT22;23098;48.054;10.636;2023-07-13T04:50:38;16.80;99.90
37204;DHT22;23098;48.054;10.636;2023-07-13T04:53:04;16.80;99.90
37204;DHT22;23098;48.054;10.636;2023-07-13T04:55:30;16.90;99.90
37204;DHT22;23098;48.054;10.636;2023-07-13T04:57:56;16.90;99.90
37204;DHT22;23098;48.054;10.636;2023-07-13T05:00:24;17.00;99.90
37204;DHT22;23098;48.054;10.636;2023-07-13T05:02:50;17.00;99.90
37204;DHT22;23098;48.054;10.636;2023-07-13T05:05:15;17.00;99.90
37204;DHT22;23098;48.054;10.636;2023-07-13T05:07:41;17.00;99.90
37204;DHT22;23098;48.054;10.636;2023-07-13T05:10:07;17.00;99.90
37204;DHT22;23098;48.054;10.636;2023-07-13T05:12:32;17.00;99.90
37204;DHT22;23098;48.054;10.636;2023-07-13T05:14:58;16.90;99.90
37204;DHT22;23098;48.054;10.636;2023-07-13T05:17:24;16.90;99.90
37204;DHT22;23098;48.054;10.636;2023-07-13T05:19:49;16.80;99.90
37204;DHT22;23098;48.054;10.636;2023-07-13T05:22:15;16.80;99.90
37204;DHT22;23098;48.054;10.636;2023-07-13T05:24:41;16.80;99.90
37204;DHT22;23098;48.054;10.636;2023-07-13T05:27:06;16.80;99.90
37204;DHT22;23098;48.054;10.636;2023-07-13T05:29:32;16.70;99.90
37204;DHT22;23098;48.054;10.636;2023-07-13T05:31:57;16.70;99.90
37204;DHT22;23098;48.054;10.636;2023-07-13T05:34:23;16.60;99.90
37204;DHT22;23098;48.054;10.636;2023-07-13T05:36:49;16.60;99.90
37204;DHT22;23098;48.054;10.636;2023-07-13T05:39:15;16.60;99.90
37204;DHT22;23098;48.054;10.636;2023-07-13T05:41:41;16.50;99.90
37204;DHT22;23098;48.054;10.636;2023-07-13T05:44:07;16.40;99.90
37204;DHT22;23098;48.054;10.636;2023-07-13T05:46:32;16.30;99.90
37204;DHT22;23098;48.054;10.636;2023-07-13T05:48:59;16.10;99.90
37204;DHT22;23098;48.054;10.636;2023-07-13T05:51:24;16.00;99.90
37204;DHT22;23098;48.054;10.636;2023-07-13T05:53:50;15.80;99.90
37204;DHT22;23098;48.054;10.636;2023-07-13T05:56:15;15.80;99.90
37204;DHT22;23098;48.054;10.636;2023-07-13T05:58:41;15.70;99.90
37204;DHT22;23098;48.054;10.636;2023-07-13T06:01:10;15.70;99.90
37204;DHT22;23098;48.054;10.636;2023-07-13T06:03:36;15.70;99.90
37204;DHT22;23098;48.054;10.636;2023-07-13T06:06:04;15.70;99.90
37204;DHT22;23098;48.054;10.636;2023-07-13T06:08:30;15.70;99.90
37204;DHT22;23098;48.054;10.636;2023-07-13T06:11:05;15.80;99.90
37204;DHT22;23098;48.054;10.636;2023-07-13T06:13:31;15.80;99.90
37204;DHT22;23098;48.054;10.636;2023-07-13T06:15:57;15.90;99.90
37204;DHT22;23098;48.054;10.636;2023-07-13T06:18:22;15.80;99.90
37204;DHT22;23098;48.054;10.636;2023-07-13T06:20:48;15.80;99.90
37204;DHT22;23098;48.054;10.636;2023-07-13T06:23:13;15.80;99.90
37204;DHT22;23098;48.054;10.636;2023-07-13T06:25:40;15.70;99.90
37204;DHT22;23098;48.054;10.636;2023-07-13T06:28:06;15.70;99.90
37204;DHT22;23098;48.054;10.636;2023-07-13T06:30:31;15.60;99.90
37204;DHT22;23098;48.054;10.636;2023-07-13T06:32:57;15.60;99.90
37204;DHT22;23098;48.054;10.636;2023-07-13T06:35:23;15.60;99.90
37204;DHT22;23098;48.054;10.636;2023-07-13T06:37:49;15.60;99.90
37204;DHT22;23098;48.054;10.636;2023-07-13T06:40:15;15.80;99.90
37204;DHT22;23098;48.054;10.636;2023-07-13T06:42:40;15.90;99.90
37204;DHT22;23098;48.054;10.636;2023-07-13T06:45:06;16.10;99.90
37204;DHT22;23098;48.054;10.636;2023-07-13T06:47:32;16.10;99.90
37204;DHT22;23098;48.054;10.636;2023-07-13T06:49:57;16.20;99.90
37204;DHT22;23098;48.054;10.636;2023-07-13T06:52:23;16.10;99.90
37204;DHT22;23098;48.054;10.636;2023-07-13T06:54:48;16.00;99.90
37204;DHT22;23098;48.054;10.636;2023-07-13T06:57:14;16.10;99.90
37204;DHT22;23098;48.054;10.636;2023-07-13T06:59:39;16.30;99.90
37204;DHT22;23098;48.054;10.636;2023-07-13T07:02:05;16.30;99.90
37204;DHT22;23098;48.054;10.636;2023-07-13T07:04:31;16.40;99.90
37204;DHT22;23098;48.054;10.636;2023-07-13T07:06:56;16.40;99.90
37204;DHT22;23098;48.054;10.636;2023-07-13T07:09:22;16.70;99.90
37204;DHT22;23098;48.054;10.636;2023-07-13T07:11:48;16.90;99.90
37204;DHT22;23098;48.054;10.636;2023-07-13T07:14:13;17.20;99.90
37204;DHT22;23098;48.054;10.636;2023-07-13T07:16:39;17.50;99.90
37204;DHT22;23098;48.054;10.636;2023-07-13T07:19:04;17.70;99.90
37204;DHT22;23098;48.054;10.636;2023-07-13T07:21:30;18.10;99.90
37204;DHT22;23098;48.054;10.636;2023-07-13T07:23:56;18.20;99.90
37204;DHT22;23098;48.054;10.636;2023-07-13T07:26:22;18.40;99.90
37204;DHT22;23098;48.054;10.636;2023-07-13T07:28:48;18.40;99.90
37204;DHT22;23098;48.054;10.636;2023-07-13T07:31:13;18.40;99.90
37204;DHT22;23098;48.054;10.636;2023-07-13T07:33:39;18.30;99.90
37204;DHT22;23098;48.054;10.636;2023-07-13T07:36:04;18.10;99.90
37204;DHT22;23098;48.054;10.636;2023-07-13T07:38:30;17.90;99.90
37204;DHT22;23098;48.054;10.636;2023-07-13T07:40:56;17.80;99.90
37204;DHT22;23098;48.054;10.636;2023-07-13T07:43:22;17.80;99.90
37204;DHT22;23098;48.054;10.636;2023-07-13T07:45:47;17.80;99.90
37204;DHT22;23098;48.054;10.636;2023-07-13T07:48:13;17.80;99.90
37204;DHT22;23098;48.054;10.636;2023-07-13T07:50:38;17.80;99.90
37204;DHT22;23098;48.054;10.636;2023-07-13T07:53:05;17.80;99.90
37204;DHT22;23098;48.054;10.636;2023-07-13T07:55:34;17.80;99.90
37204;DHT22;23098;48.054;10.636;2023-07-13T07:58:00;17.80;99.90
37204;DHT22;23098;48.054;10.636;2023-07-13T08:00:26;17.70;99.90
37204;DHT22;23098;48.054;10.636;2023-07-13T08:02:52;17.70;99.90
37204;DHT22;23098;48.054;10.636;2023-07-13T08:05:18;17.70;99.90
37204;DHT22;23098;48.054;10.636;2023-07-13T08:07:43;17.60;99.90
37204;DHT22;23098;48.054;10.636;2023-07-13T08:10:09;17.60;99.90
37204;DHT22;23098;48.054;10.636;2023-07-13T08:12:36;17.70;99.90
37204;DHT22;23098;48.054;10.636;2023-07-13T08:15:01;17.80;99.90
37204;DHT22;23098;48.054;10.636;2023-07-13T08:17:27;17.80;99.90
37204;DHT22;23098;48.054;10.636;2023-07-13T08:19:53;18.00;99.90
37204;DHT22;23098;48.054;10.636;2023-07-13T08:22:19;18.00;99.90
37204;DHT22;23098;48.054;10.636;2023-07-13T08:24:44;18.30;99.90
37204;DHT22;23098;48.054;10.636;2023-07-13T08:27:11;18.40;99.90
37204;DHT22;23098;48.054;10.636;2023-07-13T08:29:37;18.50;99.90
37204;DHT22;23098;48.054;10.636;2023-07-13T08:32:03;18.60;99.90
37204;DHT22;23098;48.054;10.636;2023-07-13T08:34:29;18.70;99.90
37204;DHT22;23098;48.054;10.636;2023-07-13T08:36:55;18.90;99.90
37204;DHT22;23098;48.054;10.636;2023-07-13T08:39:20;18.90;99.90
37204;DHT22;23098;48.054;10.636;2023-07-13T08:41:50;18.90;99.90
37204;DHT22;23098;48.054;10.636;2023-07-13T08:44:25;18.90;99.90
37204;DHT22;23098;48.054;10.636;2023-07-13T08:46:54;18.70;99.90
37204;DHT22;23098;48.054;10.636;2023-07-13T08:49:22;18.60;99.90
37204;DHT22;23098;48.054;10.636;2023-07-13T08:52:05;18.50;99.90
37204;DHT22;23098;48.054;10.636;2023-07-13T08:54:46;18.70;99.90
37204;DHT22;23098;48.054;10.636;2023-07-13T08:57:25;18.90;99.90
37204;DHT22;23098;48.054;10.636;2023-07-13T08:59:55;19.20;99.90
37204;DHT22;23098;48.054;10.636;2023-07-13T09:02:56;19.60;99.90
37204;DHT22;23098;48.054;10.636;2023-07-13T09:05:33;19.90;99.90
37204;DHT22;23098;48.054;10.636;2023-07-13T09:10:46;20.30;99.50
37204;DHT22;23098;48.054;10.636;2023-07-13T09:13:16;20.50;99.80
37204;DHT22;23098;48.054;10.636;2023-07-13T09:15:47;20.60;99.90
37204;DHT22;23098;48.054;10.636;2023-07-13T09:18:44;20.50;99.50
37204;DHT22;23098;48.054;10.636;2023-07-13T09:21:29;20.60;98.00
37204;DHT22;23098;48.054;10.636;2023-07-13T09:24:35;20.90;99.30
37204;DHT22;23098;48.054;10.636;2023-07-13T09:27:09;21.50;99.60
37204;DHT22;23098;48.054;10.636;2023-07-13T09:29:37;21.80;97.50
37204;DHT22;23098;48.054;10.636;2023-07-13T09:32:10;22.00;96.70
37204;DHT22;23098;48.054;10.636;2023-07-13T09:34:38;22.30;97.00
37204;DHT22;23098;48.054;10.636;2023-07-13T09:37:04;22.30;94.90
37204;DHT22;23098;48.054;10.636;2023-07-13T09:39:35;21.90;95.30
37204;DHT22;23098;48.054;10.636;2023-07-13T09:44:38;22.20;96.20
37204;DHT22;23098;48.054;10.636;2023-07-13T09:47:16;22.40;96.10
37204;DHT22;23098;48.054;10.636;2023-07-13T09:49:42;22.50;96.10
37204;DHT22;23098;48.054;10.636;2023-07-13T09:52:12;22.60;96.00
37204;DHT22;23098;48.054;10.636;2023-07-13T09:54:39;22.90;95.30
37204;DHT22;23098;48.054;10.636;2023-07-13T09:57:13;23.30;95.80
37204;DHT22;23098;48.054;10.636;2023-07-13T09:59:47;23.00;93.70
37204;DHT22;23098;48.054;10.636;2023-07-13T10:02:32;23.10;93.40
37204;DHT22;23098;48.054;10.636;2023-07-13T10:05:07;23.70;95.60
37204;DHT22;23098;48.054;10.636;2023-07-13T10:07:43;23.70;93.30
37204;DHT22;23098;48.054;10.636;2023-07-13T10:10:17;23.50;92.30
37204;DHT22;23098;48.054;10.636;2023-07-13T10:12:44;23.80;94.80
37204;DHT22;23098;48.054;10.636;2023-07-13T10:20:23;24.20;92.80
37204;DHT22;23098;48.054;10.636;2023-07-13T10:25:20;24.90;92.60
37204;DHT22;23098;48.054;10.636;2023-07-13T10:27:50;24.50;89.70
37204;DHT22;23098;48.054;10.636;2023-07-13T10:30:24;24.10;88.70
37204;DHT22;23098;48.054;10.636;2023-07-13T10:32:51;23.50;90.50
37204;DHT22;23098;48.054;10.636;2023-07-13T10:35:21;23.00;91.40
37204;DHT22;23098;48.054;10.636;2023-07-13T10:37:58;23.10;92.70
37204;DHT22;23098;48.054;10.636;2023-07-13T10:40:34;23.40;91.70
37204;DHT22;23098;48.054;10.636;2023-07-13T10:43:05;23.60;91.00
37204;DHT22;23098;48.054;10.636;2023-07-13T10:45:36;23.80;90.70
37204;DHT22;23098;48.054;10.636;2023-07-13T10:48:03;23.60;90.50
37204;DHT22;23098;48.054;10.636;2023-07-13T10:50:30;23.50;90.30
37204;DHT22;23098;48.054;10.636;2023-07-13T10:53:29;23.60;90.70
37204;DHT22;23098;48.054;10.636;2023-07-13T10:55:58;23.10;90.30
37204;DHT22;23098;48.054;10.636;2023-07-13T10:58:42;23.20;88.90
37204;DHT22;23098;48.054;10.636;2023-07-13T11:01:18;23.20;88.70
37204;DHT22;23098;48.054;10.636;2023-07-13T11:06:28;23.20;87.50
37204;DHT22;23098;48.054;10.636;2023-07-13T11:09:03;23.20;87.50
37204;DHT22;23098;48.054;10.636;2023-07-13T11:11:42;23.50;88.00
37204;DHT22;23098;48.054;10.636;2023-07-13T11:16:46;22.50;88.40
37204;DHT22;23098;48.054;10.636;2023-07-13T11:25:01;21.80;91.40
37204;DHT22;23098;48.054;10.636;2023-07-13T11:27:52;21.80;91.20
37204;DHT22;23098;48.054;10.636;2023-07-13T11:38:36;21.40;92.30
37204;DHT22;23098;48.054;10.636;2023-07-13T11:41:19;21.30;92.90
37204;DHT22;23098;48.054;10.636;2023-07-13T11:43:45;21.40;93.80
37204;DHT22;23098;48.054;10.636;2023-07-13T11:46:23;21.20;93.80
37204;DHT22;23098;48.054;10.636;2023-07-13T11:48:50;21.10;92.00
37204;DHT22;23098;48.054;10.636;2023-07-13T11:51:24;21.20;93.50
37204;DHT22;23098;48.054;10.636;2023-07-13T11:53:53;21.50;93.10
37204;DHT22;23098;48.054;10.636;2023-07-13T11:56:19;21.90;92.20
37204;DHT22;23098;48.054;10.636;2023-07-13T11:58:49;22.00;92.20
37204;DHT22;23098;48.054;10.636;2023-07-13T12:01:22;22.30;91.80
37204;DHT22;23098;48.054;10.636;2023-07-13T12:03:49;22.70;90.90
37204;DHT22;23098;48.054;10.636;2023-07-13T12:09:03;22.60;91.50
37204;DHT22;23098;48.054;10.636;2023-07-13T12:11:30;23.60;91.20
37204;DHT22;23098;48.054;10.636;2023-07-13T12:13:56;24.20;91.20
37204;DHT22;23098;48.054;10.636;2023-07-13T12:16:29;24.80;90.00
37204;DHT22;23098;48.054;10.636;2023-07-13T12:18:59;24.30;86.30
37204;DHT22;23098;48.054;10.636;2023-07-13T12:21:32;24.50;87.50
37204;DHT22;23098;48.054;10.636;2023-07-13T12:23:58;24.80;85.10
37204;DHT22;23098;48.054;10.636;2023-07-13T12:26:24;25.00;82.80
37204;DHT22;23098;48.054;10.636;2023-07-13T12:28:54;24.80;82.40
37204;DHT22;23098;48.054;10.636;2023-07-13T12:31:29;25.00;84.00
37204;DHT22;23098;48.054;10.636;2023-07-13T12:33:58;25.10;83.70
37204;DHT22;23098;48.054;10.636;2023-07-13T12:36:24;24.80;84.60
37204;DHT22;23098;48.054;10.636;2023-07-13T12:38:51;25.20;85.50
37204;DHT22;23098;48.054;10.636;2023-07-13T12:41:17;25.70;85.20
37204;DHT22;23098;48.054;10.636;2023-07-13T12:43:45;25.90;83.70
37204;DHT22;23098;48.054;10.636;2023-07-13T12:46:23;25.70;81.80
37204;DHT22;23098;48.054;10.636;2023-07-13T12:48:51;25.40;81.50
37204;DHT22;23098;48.054;10.636;2023-07-13T12:51:21;24.80;82.20
37204;DHT22;23098;48.054;10.636;2023-07-13T12:53:51;24.60;83.00
37204;DHT22;23098;48.054;10.636;2023-07-13T12:56:23;24.60;83.10
37204;DHT22;23098;48.054;10.636;2023-07-13T12:58:50;24.80;81.90
37204;DHT22;23098;48.054;10.636;2023-07-13T13:01:21;24.60;82.30
37204;DHT22;23098;48.054;10.636;2023-07-13T13:03:52;25.00;82.20
37204;DHT22;23098;48.054;10.636;2023-07-13T13:08:50;25.20;82.00
37204;DHT22;23098;48.054;10.636;2023-07-13T13:11:17;25.40;82.40
37204;DHT22;23098;48.054;10.636;2023-07-13T13:13:43;25.10;83.20
37204;DHT22;23098;48.054;10.636;2023-07-13T13:18:35;24.80;83.80
37204;DHT22;23098;48.054;10.636;2023-07-13T13:21:01;24.70;84.70
37204;DHT22;23098;48.054;10.636;2023-07-13T13:23:28;25.00;82.90
37204;DHT22;23098;48.054;10.636;2023-07-13T13:25:53;24.80;83.90
37204;DHT22;23098;48.054;10.636;2023-07-13T13:28:20;24.80;82.80
37204;DHT22;23098;48.054;10.636;2023-07-13T13:30:48;25.10;84.60
37204;DHT22;23098;48.054;10.636;2023-07-13T13:33:19;25.20;80.30
37204;DHT22;23098;48.054;10.636;2023-07-13T13:35:46;25.30;83.40
37204;DHT22;23098;48.054;10.636;2023-07-13T13:38:13;25.20;83.80
37204;DHT22;23098;48.054;10.636;2023-07-13T13:40:42;25.40;83.70
37204;DHT22;23098;48.054;10.636;2023-07-13T13:43:34;25.70;84.00
37204;DHT22;23098;48.054;10.636;2023-07-13T13:46:00;25.60;84.50
37204;DHT22;23098;48.054;10.636;2023-07-13T13:48:32;25.50;84.30
37204;DHT22;23098;48.054;10.636;2023-07-13T13:50:59;25.20;83.00
37204;DHT22;23098;48.054;10.636;2023-07-13T13:53:25;25.00;83.50
37204;DHT22;23098;48.054;10.636;2023-07-13T13:55:51;25.10;83.80
37204;DHT22;23098;48.054;10.636;2023-07-13T13:58:18;25.50;83.30
37204;DHT22;23098;48.054;10.636;2023-07-13T14:00:44;25.80;82.20
37204;DHT22;23098;48.054;10.636;2023-07-13T14:03:19;25.70;82.90
37204;DHT22;23098;48.054;10.636;2023-07-13T14:05:46;25.40;81.40
37204;DHT22;23098;48.054;10.636;2023-07-13T14:08:18;25.00;84.30
37204;DHT22;23098;48.054;10.636;2023-07-13T14:10:55;24.60;84.30
37204;DHT22;23098;48.054;10.636;2023-07-13T14:13:36;25.00;84.70
37204;DHT22;23098;48.054;10.636;2023-07-13T14:16:21;25.30;83.40
37204;DHT22;23098;48.054;10.636;2023-07-13T14:18:49;25.50;85.20
37204;DHT22;23098;48.054;10.636;2023-07-13T14:21:22;26.30;82.90
37204;DHT22;23098;48.054;10.636;2023-07-13T14:23:49;26.30;83.20
37204;DHT22;23098;48.054;10.636;2023-07-13T14:26:21;26.40;79.50
37204;DHT22;23098;48.054;10.636;2023-07-13T14:31:25;26.90;79.30
37204;DHT22;23098;48.054;10.636;2023-07-13T14:33:54;26.80;81.60
37204;DHT22;23098;48.054;10.636;2023-07-13T14:36:31;26.20;80.50
37204;DHT22;23098;48.054;10.636;2023-07-13T14:38:58;26.30;82.10
37204;DHT22;23098;48.054;10.636;2023-07-13T14:41:26;26.40;80.30
37204;DHT22;23098;48.054;10.636;2023-07-13T14:43:53;26.30;82.80
37204;DHT22;23098;48.054;10.636;2023-07-13T14:46:28;26.30;80.80
37204;DHT22;23098;48.054;10.636;2023-07-13T14:49:02;26.10;82.50
37204;DHT22;23098;48.054;10.636;2023-07-13T14:51:32;26.50;80.20
37204;DHT22;23098;48.054;10.636;2023-07-13T14:54:05;26.50;81.50
37204;DHT22;23098;48.054;10.636;2023-07-13T14:59:03;26.40;81.10
37204;DHT22;23098;48.054;10.636;2023-07-13T15:01:30;26.40;82.50
37204;DHT22;23098;48.054;10.636;2023-07-13T15:03:57;26.00;81.40
37204;DHT22;23098;48.054;10.636;2023-07-13T15:06:23;25.50;82.50
37204;DHT22;23098;48.054;10.636;2023-07-13T15:08:49;25.10;83.90
37204;DHT22;23098;48.054;10.636;2023-07-13T15:11:16;25.00;84.40
37204;DHT22;23098;48.054;10.636;2023-07-13T15:13:41;25.10;82.80
37204;DHT22;23098;48.054;10.636;2023-07-13T15:16:18;25.30;83.10
37204;DHT22;23098;48.054;10.636;2023-07-13T15:18:47;25.80;84.10
37204;DHT22;23098;48.054;10.636;2023-07-13T15:21:20;25.90;82.50
37204;DHT22;23098;48.054;10.636;2023-07-13T15:23:46;26.00;83.20
37204;DHT22;23098;48.054;10.636;2023-07-13T15:26:16;25.70;80.00
37204;DHT22;23098;48.054;10.636;2023-07-13T15:28:44;25.50;81.00
37204;DHT22;23098;48.054;10.636;2023-07-13T15:31:21;25.10;82.30
37204;DHT22;23098;48.054;10.636;2023-07-13T15:33:48;25.20;84.40
37204;DHT22;23098;48.054;10.636;2023-07-13T15:36:15;25.20;82.30
37204;DHT22;23098;48.054;10.636;2023-07-13T15:38:42;25.00;82.90
37204;DHT22;23098;48.054;10.636;2023-07-13T15:41:20;24.30;83.70
37204;DHT22;23098;48.054;10.636;2023-07-13T15:43:48;24.00;85.40
37204;DHT22;23098;48.054;10.636;2023-07-13T15:46:14;23.70;86.00
37204;DHT22;23098;48.054;10.636;2023-07-13T15:48:40;23.70;88.70
37204;DHT22;23098;48.054;10.636;2023-07-13T15:51:12;23.70;86.80
37204;DHT22;23098;48.054;10.636;2023-07-13T15:53:39;23.90;86.50
37204;DHT22;23098;48.054;10.636;2023-07-13T15:56:18;23.90;86.30
37204;DHT22;23098;48.054;10.636;2023-07-13T15:58:44;23.80;86.00
37204;DHT22;23098;48.054;10.636;2023-07-13T16:01:10;23.80;88.80
37204;DHT22;23098;48.054;10.636;2023-07-13T16:03:36;23.50;86.00
37204;DHT22;23098;48.054;10.636;2023-07-13T16:06:01;23.40;87.00
37204;DHT22;23098;48.054;10.636;2023-07-13T16:08:31;23.50;87.50